createdAt,value
2023-10-13T00:00:42.640Z,99021.34
2023-10-13T00:03:16.601Z,99016.53
2023-10-13T00:05:46.275Z,99018.13
2023-10-13T00:08:14.847Z,99014.19
2023-10-13T00:10:44.088Z,99012.50
2023-10-13T00:13:14.401Z,99021.13
2023-10-13T00:15:47.242Z,99016.00
2023-10-13T00:18:15.176Z,99021.13
2023-10-13T00:20:49.296Z,99016.88
2023-10-13T00:23:21.808Z,99015.91
2023-10-13T00:25:57.860Z,99006.00
2023-10-13T00:28:27.693Z,99001.53
2023-10-13T00:31:01.070Z,99001.53
2023-10-13T00:33:28.998Z,99002.06
2023-10-13T00:35:59.035Z,98998.66
2023-10-13T00:38:28.564Z,98994.41
2023-10-13T00:40:56.694Z,98999.84
2023-10-13T00:43:41.744Z,98999.09
2023-10-13T00:46:13.821Z,98997.59
2023-10-13T00:48:53.060Z,98993.25
2023-10-13T00:51:33.654Z,98993.34
2023-10-13T00:54:09.273Z,98994.19
2023-10-13T00:56:42.049Z,98996.97
2023-10-13T00:59:11.165Z,98993.56
2023-10-13T01:01:42.268Z,99000.69
2023-10-13T01:04:10.000Z,98993.25
2023-10-13T01:06:38.968Z,98995.06
2023-10-13T01:09:14.936Z,98991.97
2023-10-13T01:11:45.359Z,98988.66
2023-10-13T01:14:12.428Z,98994.41
2023-10-13T01:16:44.888Z,98989.84
2023-10-13T01:19:13.558Z,98990.16
2023-10-13T01:21:42.702Z,98990.06
2023-10-13T01:24:12.610Z,98986.66
2023-10-13T01:26:41.503Z,98991.13
2023-10-13T01:29:15.661Z,98993.66
2023-10-13T01:31:49.861Z,98987.38
2023-10-13T01:34:23.139Z,98984.00
2023-10-13T01:36:52.771Z,98988.25
2023-10-13T01:39:22.139Z,98988.25
2023-10-13T01:41:56.559Z,98969.94
2023-10-13T01:44:25.120Z,98976.75
2023-10-13T01:46:52.545Z,98972.19
2023-10-13T01:49:23.052Z,98973.97
2023-10-13T01:51:50.152Z,98968.66
2023-10-13T01:54:18.628Z,98958.44
2023-10-13T01:56:46.709Z,98956.00
2023-10-13T01:59:14.606Z,98950.69
2023-10-13T02:01:42.682Z,98952.19
2023-10-13T02:04:11.782Z,98939.84
2023-10-13T02:06:38.754Z,98950.59
2023-10-13T02:09:14.521Z,98942.81
2023-10-13T02:11:42.797Z,98946.34
2023-10-13T02:14:13.323Z,98934.09
2023-10-13T02:16:40.504Z,98930.69
2023-10-13T02:19:09.838Z,98932.50
2023-10-13T02:21:40.653Z,98928.16
2023-10-13T02:24:14.068Z,98925.69
2023-10-13T02:26:41.475Z,98934.53
2023-10-13T02:29:09.417Z,98930.16
2023-10-13T02:31:38.806Z,98915.81
2023-10-13T02:34:09.623Z,98922.19
2023-10-13T02:36:37.419Z,98909.81
2023-10-13T02:39:08.619Z,98899.66
2023-10-13T02:41:38.289Z,98903.97
2023-10-13T02:44:07.925Z,98898.66
2023-10-13T02:46:37.104Z,98901.41
2023-10-13T02:49:12.031Z,98903.44
2023-10-13T02:51:43.174Z,98888.44
2023-10-13T02:54:12.480Z,98892.81
2023-10-13T02:56:49.113Z,98899.06
2023-10-13T02:59:21.057Z,98890.03
2023-10-13T03:01:48.143Z,98886.63
2023-10-13T03:04:24.569Z,98884.84
2023-10-13T03:06:51.278Z,98887.59
2023-10-13T03:09:19.953Z,98879.72
2023-10-13T03:11:49.600Z,98879.63
2023-10-13T03:14:26.987Z,98887.81
2023-10-13T03:16:55.220Z,98882.81
2023-10-13T03:19:33.820Z,98879.19
2023-10-13T03:22:08.577Z,98872.28
2023-10-13T03:24:36.174Z,98861.88
2023-10-13T03:27:10.596Z,98864.63
2023-10-13T03:29:39.974Z,98864.41
2023-10-13T03:32:13.034Z,98865.59
2023-10-13T03:34:54.450Z,98856.97
2023-10-13T03:37:38.711Z,98850.72
2023-10-13T03:40:17.299Z,98852.72
2023-10-13T03:42:58.824Z,98848.47
2023-10-13T03:45:26.542Z,98860.91
2023-10-13T03:47:54.788Z,98856.56
2023-10-13T03:50:30.714Z,98851.88
2023-10-13T03:52:59.251Z,98849.22
2023-10-13T03:55:28.398Z,98859.09
2023-10-13T03:57:56.332Z,98851.13
2023-10-13T04:00:27.727Z,98857.19
2023-10-13T04:03:07.789Z,98854.84
2023-10-13T04:05:45.392Z,98855.50
2023-10-13T04:08:31.045Z,98846.47
2023-10-13T04:11:17.439Z,98842.75
2023-10-13T04:14:02.844Z,98847.84
2023-10-13T04:16:37.345Z,98838.06
2023-10-13T04:19:17.034Z,98843.47
2023-10-13T04:21:58.717Z,98844.97
2023-10-13T04:24:45.988Z,98833.50
2023-10-13T04:27:45.523Z,98834.34
2023-10-13T04:30:20.675Z,98825.31
2023-10-13T04:33:07.313Z,98818.28
2023-10-13T04:35:43.863Z,98815.00
2023-10-13T04:38:20.677Z,98815.75
2023-10-13T04:41:00.212Z,98809.03
2023-10-13T04:43:56.620Z,98807.44
2023-10-13T04:46:37.112Z,98795.66
2023-10-13T04:49:11.277Z,98797.66
2023-10-13T04:51:54.511Z,98790.31
2023-10-13T04:54:35.034Z,98792.78
2023-10-13T04:57:20.433Z,98789.50
2023-10-13T05:00:02.032Z,98786.63
2023-10-13T05:02:56.679Z,98783.53
2023-10-13T05:05:46.502Z,98778.00
2023-10-13T05:08:32.103Z,98778.97
2023-10-13T05:11:31.184Z,98771.31
2023-10-13T05:14:16.280Z,98773.56
2023-10-13T05:17:01.864Z,98771.09
2023-10-13T05:19:47.115Z,98760.91
2023-10-13T05:22:32.599Z,98769.72
2023-10-13T05:25:17.943Z,98776.09
2023-10-13T05:28:07.196Z,98782.28
2023-10-13T05:30:52.844Z,98777.28
2023-10-13T05:33:38.125Z,98777.06
2023-10-13T05:36:30.004Z,98783.09
2023-10-13T05:39:15.370Z,98786.19
2023-10-13T05:42:00.694Z,98789.06
2023-10-13T05:44:38.415Z,98773.13
2023-10-13T05:47:45.519Z,98778.22
2023-10-13T05:50:30.223Z,98780.13
2023-10-13T05:53:15.588Z,98781.63
2023-10-13T05:56:00.934Z,98784.38
2023-10-13T05:58:46.385Z,98778.13
2023-10-13T06:01:33.008Z,98781.63
2023-10-13T06:04:18.683Z,98784.38
2023-10-13T06:07:04.328Z,98780.88
2023-10-13T06:09:54.978Z,98779.81
2023-10-13T06:12:40.183Z,98778.97
2023-10-13T06:15:25.978Z,98779.72
2023-10-13T06:18:14.910Z,98785.66
2023-10-13T06:21:00.989Z,98784.16
2023-10-13T06:23:46.367Z,98795.31
2023-10-13T06:26:43.287Z,98786.94
2023-10-13T06:29:10.910Z,98794.69
2023-10-13T06:31:38.702Z,98788.38
2023-10-13T06:34:07.776Z,98784.44
2023-10-13T06:36:36.546Z,98786.13
2023-10-13T06:39:18.513Z,98786.34
2023-10-13T06:41:46.225Z,98794.63
2023-10-13T06:44:17.349Z,98795.66
2023-10-13T06:46:44.990Z,98798.53
2023-10-13T06:49:15.246Z,98791.28
2023-10-13T06:51:43.162Z,98787.44
2023-10-13T06:54:20.926Z,98792.22
2023-10-13T06:56:52.605Z,98799.97
2023-10-13T06:59:20.551Z,98797.69
2023-10-13T07:01:49.640Z,98795.31
2023-10-13T07:04:19.547Z,98798.16
2023-10-13T07:06:50.053Z,98795.78
2023-10-13T07:09:40.587Z,98801.13
2023-10-13T07:12:17.277Z,98804.38
2023-10-13T07:14:53.180Z,98803.19
2023-10-13T07:17:25.708Z,98809.22
2023-10-13T07:19:56.452Z,98803.34
2023-10-13T07:22:26.980Z,98803.97
2023-10-13T07:24:54.760Z,98799.84
2023-10-13T07:27:26.519Z,98808.25
2023-10-13T07:30:14.291Z,98813.09
2023-10-13T07:32:47.822Z,98810.81
2023-10-13T07:35:21.521Z,98806.22
2023-10-13T07:37:53.200Z,98806.53
2023-10-13T07:40:40.814Z,98806.53
2023-10-13T07:43:11.660Z,98798.28
2023-10-13T07:45:39.828Z,98794.53
2023-10-13T07:48:13.352Z,98797.31
2023-10-13T07:50:42.743Z,98802.78
2023-10-13T07:53:23.693Z,98794.53
2023-10-13T07:55:56.550Z,98794.84
2023-10-13T07:58:26.510Z,98792.41
2023-10-13T08:01:07.763Z,98795.34
2023-10-13T08:03:48.128Z,98789.28
2023-10-13T08:06:22.359Z,98792.53
2023-10-13T08:08:55.333Z,98800.44
2023-10-13T08:11:35.222Z,98795.94
2023-10-13T08:14:22.367Z,98790.97
2023-10-13T08:17:00.918Z,98781.63
2023-10-13T08:19:33.387Z,98784.19
2023-10-13T08:22:24.612Z,98773.13
2023-10-13T08:25:16.266Z,98774.44
2023-10-13T08:28:26.352Z,98763.19
2023-10-13T08:30:54.946Z,98754.88
2023-10-13T08:33:26.047Z,98754.44
2023-10-13T08:36:11.653Z,98745.44
2023-10-13T08:38:52.247Z,98752.19
2023-10-13T08:41:32.659Z,98745.28
2023-10-13T08:44:05.697Z,98731.63
2023-10-13T08:46:53.008Z,98737.66
2023-10-13T08:49:24.428Z,98727.38
2023-10-13T08:52:06.397Z,98734.63
2023-10-13T08:54:40.345Z,98715.47
2023-10-13T08:57:22.011Z,98717.59
2023-10-13T08:59:56.359Z,98718.03
2023-10-13T09:02:44.103Z,98706.34
2023-10-13T09:05:32.215Z,98690.97
2023-10-13T09:08:10.331Z,98689.94
2023-10-13T09:11:01.388Z,98690.34
2023-10-13T09:13:44.917Z,98700.34
2023-10-13T09:16:18.757Z,98693.53
2023-10-13T09:18:48.582Z,98703.28
2023-10-13T09:21:46.665Z,98701.91
2023-10-13T09:24:34.187Z,98694.19
2023-10-13T09:27:06.046Z,98691.38
2023-10-13T09:29:39.971Z,98692.41
2023-10-13T09:32:12.784Z,98693.50
2023-10-13T09:34:42.068Z,98697.75
2023-10-13T09:37:12.477Z,98705.22
2023-10-13T09:39:45.720Z,98697.72
2023-10-13T09:42:18.578Z,98704.97
2023-10-13T09:44:52.418Z,98692.63
2023-10-13T09:47:30.964Z,98698.72
2023-10-13T09:50:04.979Z,98696.72
2023-10-13T09:52:33.316Z,98703.78
2023-10-13T09:55:19.510Z,98695.31
2023-10-13T09:57:58.654Z,98698.94
2023-10-13T10:00:44.091Z,98693.06
2023-10-13T10:03:30.548Z,98690.13
2023-10-13T10:06:05.704Z,98690.97
2023-10-13T10:08:35.477Z,98690.84
2023-10-13T10:11:09.734Z,98683.78
2023-10-13T10:13:44.924Z,98680.25
2023-10-13T10:16:15.743Z,98670.72
2023-10-13T10:18:43.948Z,98671.31
2023-10-13T10:21:12.289Z,98669.16
2023-10-13T10:23:41.195Z,98668.69
2023-10-13T10:26:12.730Z,98669.75
2023-10-13T10:28:43.177Z,98669.28
2023-10-13T10:31:13.888Z,98675.97
2023-10-13T10:33:42.457Z,98667.13
2023-10-13T10:36:15.230Z,98667.97
2023-10-13T10:38:55.578Z,98671.75
2023-10-13T10:41:31.140Z,98653.06
2023-10-13T10:44:03.976Z,98656.88
2023-10-13T10:46:39.381Z,98637.84
2023-10-13T10:49:09.558Z,98639.22
2023-10-13T10:51:44.719Z,98639.88
2023-10-13T10:54:21.183Z,98631.25
2023-10-13T10:56:53.810Z,98629.34
2023-10-13T10:59:26.171Z,98631.16
2023-10-13T11:01:53.926Z,98629.00
2023-10-13T11:04:26.007Z,98626.31
2023-10-13T11:06:56.527Z,98625.66
2023-10-13T11:09:37.984Z,98622.78
2023-10-13T11:12:25.111Z,98607.28
2023-10-13T11:15:13.686Z,98605.84
2023-10-13T11:17:49.539Z,98607.00
2023-10-13T11:20:26.733Z,98605.97
2023-10-13T11:22:54.779Z,98597.88
2023-10-13T11:25:31.292Z,98584.59
2023-10-13T11:28:00.617Z,98563.72
2023-10-13T11:30:43.127Z,98576.22
2023-10-13T11:33:12.387Z,98577.38
2023-10-13T11:36:02.302Z,98561.94
2023-10-13T11:38:36.902Z,98559.31
2023-10-13T11:41:12.896Z,98561.84
2023-10-13T11:44:13.653Z,98555.47
2023-10-13T11:47:03.223Z,98544.66
2023-10-13T11:49:36.009Z,98553.06
2023-10-13T11:52:18.875Z,98549.41
2023-10-13T11:54:48.355Z,98548.22
2023-10-13T11:57:20.272Z,98545.25
2023-10-13T11:59:54.396Z,98535.38
2023-10-13T12:02:41.806Z,98543.31
2023-10-13T12:05:28.574Z,98541.66
2023-10-13T12:08:04.813Z,98549.22
2023-10-13T12:10:40.159Z,98546.88
2023-10-13T12:13:09.420Z,98536.94
2023-10-13T12:15:49.667Z,98527.00
2023-10-13T12:18:24.625Z,98534.75
2023-10-13T12:20:52.621Z,98501.75
2023-10-13T12:23:22.008Z,98517.59
2023-10-13T12:26:06.779Z,98521.28
2023-10-13T12:28:41.738Z,98519.25
2023-10-13T12:31:12.758Z,98504.56
2023-10-13T12:33:42.519Z,98515.06
2023-10-13T12:36:27.995Z,98503.72
2023-10-13T12:39:13.061Z,98503.94
2023-10-13T12:41:58.550Z,98496.38
2023-10-13T12:44:43.926Z,98487.59
2023-10-13T12:47:29.548Z,98476.63
2023-10-13T12:50:08.522Z,98484.47
2023-10-13T12:52:37.284Z,98482.72
2023-10-13T12:55:10.959Z,98472.66
2023-10-13T12:57:45.257Z,98466.72
2023-10-13T13:00:22.376Z,98472.81
2023-10-13T13:02:54.167Z,98474.81
2023-10-13T13:05:29.504Z,98463.53
2023-10-13T13:08:01.608Z,98467.38
2023-10-13T13:10:37.479Z,98455.75
2023-10-13T13:13:06.501Z,98451.44
2023-10-13T13:15:34.381Z,98449.50
2023-10-13T13:18:11.419Z,98446.72
2023-10-13T13:20:54.480Z,98440.75
2023-10-13T13:23:27.141Z,98444.09
2023-10-13T13:25:57.958Z,98433.00
2023-10-13T13:28:31.067Z,98434.13
2023-10-13T13:30:59.854Z,98430.00
2023-10-13T13:33:27.896Z,98426.94
2023-10-13T13:36:00.746Z,98432.81
2023-10-13T13:38:33.583Z,98418.59
2023-10-13T13:41:03.215Z,98414.75
2023-10-13T13:43:39.492Z,98418.13
2023-10-13T13:46:10.421Z,98407.75
2023-10-13T13:48:38.886Z,98409.91
2023-10-13T13:51:15.270Z,98405.41
2023-10-13T13:53:46.431Z,98393.22
2023-10-13T13:56:17.625Z,98387.41
2023-10-13T13:58:46.327Z,98388.41
2023-10-13T14:01:15.690Z,98380.63
2023-10-13T14:03:51.447Z,98367.72
2023-10-13T14:06:24.364Z,98373.41
2023-10-13T14:08:55.892Z,98363.72
2023-10-13T14:11:44.636Z,98371.03
2023-10-13T14:14:30.119Z,98363.09
2023-10-13T14:17:04.596Z,98361.03
2023-10-13T14:19:33.271Z,98371.19
2023-10-13T14:22:07.495Z,98356.56
2023-10-13T14:24:36.966Z,98354.66
2023-10-13T14:27:10.583Z,98352.03
2023-10-13T14:29:41.310Z,98351.25
2023-10-13T14:32:13.251Z,98350.72
2023-10-13T14:34:42.779Z,98350.91
2023-10-13T14:37:13.794Z,98350.31
2023-10-13T14:39:41.651Z,98345.69
2023-10-13T14:42:09.473Z,98343.72
2023-10-13T14:44:38.263Z,98345.34
2023-10-13T14:47:07.405Z,98339.31
2023-10-13T14:49:36.410Z,98339.50
2023-10-13T14:52:04.258Z,98347.22
2023-10-13T14:54:35.915Z,98340.81
2023-10-13T14:57:04.327Z,98338.56
2023-10-13T14:59:34.204Z,98332.91
2023-10-13T15:02:03.896Z,98320.81
2023-10-13T15:04:34.074Z,98322.16
2023-10-13T15:07:03.329Z,98317.00
2023-10-13T15:09:31.163Z,98310.81
2023-10-13T15:12:00.257Z,98298.94
2023-10-13T15:14:27.903Z,98300.78
2023-10-13T15:16:56.411Z,98288.97
2023-10-13T15:19:24.684Z,98286.13
2023-10-13T15:21:54.010Z,98289.31
2023-10-13T15:24:26.968Z,98292.53
2023-10-13T15:27:03.670Z,98283.13
2023-10-13T15:29:38.335Z,98281.63
2023-10-13T15:32:27.508Z,98276.25
2023-10-13T15:34:55.777Z,98269.53
2023-10-13T15:37:26.342Z,98260.66
2023-10-13T15:39:54.662Z,98263.50
2023-10-13T15:42:22.769Z,98257.59
2023-10-13T15:44:52.105Z,98256.44
2023-10-13T15:48:08.054Z,98248.53
2023-10-13T15:50:07.969Z,98250.59
2023-10-13T15:52:35.753Z,98249.25
2023-10-13T15:55:05.365Z,98254.81
2023-10-13T15:57:37.484Z,98252.28
2023-10-13T16:00:24.100Z,98247.94
2023-10-13T16:02:53.465Z,98241.38
2023-10-13T16:05:23.888Z,98235.34
2023-10-13T16:07:53.465Z,98233.34
2023-10-13T16:10:23.708Z,98231.81
2023-10-13T16:12:51.593Z,98230.31
2023-10-13T16:15:22.500Z,98234.31
2023-10-13T16:17:50.309Z,98232.66
2023-10-13T16:20:18.188Z,98222.22
2023-10-13T16:22:46.960Z,98223.56
2023-10-13T16:25:19.747Z,98231.81
2023-10-13T16:27:50.294Z,98232.81
2023-10-13T16:30:20.495Z,98229.28
2023-10-13T16:32:50.484Z,98232.97
2023-10-13T16:35:19.534Z,98230.63
2023-10-13T16:37:48.022Z,98232.28
2023-10-13T16:40:20.438Z,98234.13
2023-10-13T16:42:48.891Z,98227.91
2023-10-13T16:45:20.556Z,98224.38
2023-10-13T16:47:50.509Z,98217.31
2023-10-13T16:50:18.922Z,98221.03
2023-10-13T16:52:48.163Z,98211.63
2023-10-13T16:55:18.675Z,98205.91
2023-10-13T16:57:48.881Z,98208.75
2023-10-13T17:00:17.868Z,98206.56
2023-10-13T17:02:47.022Z,98208.09
2023-10-13T17:05:19.076Z,98205.75
2023-10-13T17:07:48.133Z,98204.22
2023-10-13T17:10:16.634Z,98200.16
2023-10-13T17:12:44.741Z,98200.34
2023-10-13T17:15:20.395Z,98200.00
2023-10-13T17:17:48.889Z,98189.00
2023-10-13T17:20:18.744Z,98190.69
2023-10-13T17:22:47.525Z,98185.50
2023-10-13T17:25:15.767Z,98180.94
2023-10-13T17:27:43.854Z,98186.13
2023-10-13T17:30:12.758Z,98183.44
2023-10-13T17:32:40.797Z,98188.63
2023-10-13T17:35:13.040Z,98171.19
2023-10-13T17:37:44.456Z,98175.22
2023-10-13T17:40:16.572Z,98179.78
2023-10-13T17:42:48.343Z,98163.84
2023-10-13T17:45:16.161Z,98172.72
2023-10-13T17:47:44.723Z,98166.38
2023-10-13T17:50:14.321Z,98168.38
2023-10-13T17:52:43.484Z,98171.91
2023-10-13T17:55:12.284Z,98166.56
2023-10-13T17:57:41.435Z,98157.38
2023-10-13T18:00:15.479Z,98155.97
2023-10-13T18:02:43.777Z,98150.75
2023-10-13T18:05:12.312Z,98151.94
2023-10-13T18:07:41.249Z,98150.59
2023-10-13T18:10:13.735Z,98138.19
2023-10-13T18:12:41.705Z,98143.53
2023-10-13T18:15:10.789Z,98141.88
2023-10-13T18:17:40.651Z,98144.72
2023-10-13T18:20:11.378Z,98142.34
2023-10-13T18:22:39.274Z,98139.00
2023-10-13T18:25:13.234Z,98128.44
2023-10-13T18:27:43.900Z,98122.88
2023-10-13T18:30:13.463Z,98123.25
2023-10-13T18:32:42.101Z,98124.75
2023-10-13T18:35:12.633Z,98120.72
2023-10-13T18:37:42.507Z,98110.97
2023-10-13T18:40:13.750Z,98113.84
2023-10-13T18:42:44.114Z,98105.97
2023-10-13T18:45:12.828Z,98102.28
2023-10-13T18:47:41.177Z,98102.78
2023-10-13T18:50:09.033Z,98111.19
2023-10-13T18:52:36.845Z,98099.94
2023-10-13T18:55:06.463Z,98106.97
2023-10-13T18:57:34.325Z,98109.22
2023-10-13T19:00:05.001Z,98110.03
2023-10-13T19:02:34.569Z,98110.38
2023-10-13T19:05:02.878Z,98106.03
2023-10-13T19:07:32.092Z,98112.72
2023-10-13T19:09:59.801Z,98112.06
2023-10-13T19:12:27.510Z,98113.91
2023-10-13T19:14:55.964Z,98121.28
2023-10-13T19:17:25.483Z,98121.13
2023-10-13T19:19:53.128Z,98127.16
2023-10-13T19:22:20.741Z,98128.97
2023-10-13T19:24:48.813Z,98123.25
2023-10-13T19:27:16.567Z,98120.41
2023-10-13T19:29:44.188Z,98125.28
2023-10-13T19:32:11.871Z,98123.75
2023-10-13T19:34:43.112Z,98127.28
2023-10-13T19:37:10.922Z,98121.88
2023-10-13T19:39:43.539Z,98121.38
2023-10-13T19:42:11.683Z,98116.19
2023-10-13T19:44:41.312Z,98115.84
2023-10-13T19:47:09.925Z,98124.41
2023-10-13T19:49:38.848Z,98125.75
2023-10-13T19:52:07.856Z,98127.25
2023-10-13T19:54:35.655Z,98129.09
2023-10-13T19:57:05.265Z,98127.56
2023-10-13T19:59:32.975Z,98131.91
2023-10-13T20:02:00.649Z,98127.06
2023-10-13T20:04:28.417Z,98134.09
2023-10-13T20:06:56.989Z,98131.09
2023-10-13T20:09:26.268Z,98141.63
2023-10-13T20:11:53.905Z,98134.25
2023-10-13T20:14:23.024Z,98129.38
2023-10-13T20:16:51.186Z,98129.91
2023-10-13T20:19:19.423Z,98133.75
2023-10-13T20:21:48.051Z,98138.44
2023-10-13T20:24:16.796Z,98130.56
2023-10-13T20:26:46.861Z,98130.56
2023-10-13T20:29:17.955Z,98121.66
2023-10-13T20:31:48.529Z,98117.81
2023-10-13T20:34:16.725Z,98121.16
2023-10-13T20:36:44.431Z,98119.13
2023-10-13T20:39:24.735Z,98119.44
2023-10-13T20:41:53.957Z,98127.03
2023-10-13T20:44:27.549Z,98122.13
2023-10-13T20:46:57.699Z,98126.66
2023-10-13T20:49:27.691Z,98130.31
2023-10-13T20:51:55.469Z,98128.56
2023-10-13T20:54:23.422Z,98135.56
2023-10-13T20:56:51.082Z,98135.75
2023-10-13T20:59:20.226Z,98128.69
2023-10-13T21:01:48.924Z,98132.03
2023-10-13T21:04:17.252Z,98135.06
2023-10-13T21:06:45.844Z,98133.38
2023-10-13T21:09:20.819Z,98122.41
2023-10-13T21:11:49.838Z,98126.44
2023-10-13T21:14:17.618Z,98127.28
2023-10-13T21:16:46.616Z,98133.97
2023-10-13T21:19:14.402Z,98131.56
2023-10-13T21:21:42.368Z,98123.50
2023-10-13T21:24:11.755Z,98127.19
2023-10-13T21:26:39.839Z,98128.50
2023-10-13T21:29:08.960Z,98139.59
2023-10-13T21:31:38.315Z,98132.97
2023-10-13T21:34:08.299Z,98142.97
2023-10-13T21:36:39.809Z,98150.06
2023-10-13T21:39:11.874Z,98142.59
2023-10-13T21:41:39.950Z,98146.22
2023-10-13T21:44:08.184Z,98141.38
2023-10-13T21:46:37.059Z,98143.53
2023-10-13T21:49:07.671Z,98144.53
2023-10-13T21:51:37.137Z,98141.00
2023-10-13T21:54:08.508Z,98136.97
2023-10-13T21:56:37.036Z,98126.25
2023-10-13T21:59:04.907Z,98112.69
2023-10-13T22:01:45.721Z,98109.75
2023-10-13T22:04:21.778Z,98112.38
2023-10-13T22:06:51.226Z,98108.63
2023-10-13T22:09:19.651Z,98105.41
2023-10-13T22:11:49.476Z,98106.03
2023-10-13T22:14:18.897Z,98090.81
2023-10-13T22:16:46.675Z,98084.59
2023-10-13T22:19:14.865Z,98094.00
2023-10-13T22:21:42.645Z,98097.72
2023-10-13T22:24:14.566Z,98090.38
2023-10-13T22:26:44.388Z,98094.34
2023-10-13T22:29:12.486Z,98083.72
2023-10-13T22:31:41.178Z,98077.69
2023-10-13T22:34:09.883Z,98076.31
2023-10-13T22:36:38.550Z,98073.94
2023-10-13T22:39:16.252Z,98075.56
2023-10-13T22:41:45.974Z,98082.66
2023-10-13T22:44:19.815Z,98070.81
2023-10-13T22:46:48.443Z,98081.69
2023-10-13T22:49:16.523Z,98078.94
2023-10-13T22:51:44.555Z,98070.06
2023-10-13T22:54:16.522Z,98065.47
2023-10-13T22:56:45.497Z,98066.31
2023-10-13T22:59:13.434Z,98058.88
2023-10-13T23:01:44.123Z,98052.38
2023-10-13T23:04:15.636Z,98048.78
2023-10-13T23:06:47.131Z,98051.63
2023-10-13T23:09:25.902Z,98050.16
2023-10-13T23:12:03.883Z,98052.59
2023-10-13T23:14:33.591Z,98044.69
2023-10-13T23:17:01.661Z,98042.66
2023-10-13T23:19:29.376Z,98050.53
2023-10-13T23:21:57.096Z,98039.75
2023-10-13T23:24:24.792Z,98038.13
2023-10-13T23:26:52.434Z,98034.00
2023-10-13T23:29:21.608Z,98045.84
2023-10-13T23:31:49.677Z,98042.88
2023-10-13T23:34:17.887Z,98035.31
2023-10-13T23:36:45.776Z,98041.44
2023-10-13T23:39:13.448Z,98032.66
2023-10-13T23:41:42.836Z,98031.50
2023-10-13T23:44:15.221Z,98027.22
2023-10-13T23:46:45.743Z,98034.72
2023-10-13T23:49:16.688Z,98038.75
2023-10-13T23:51:54.265Z,98030.31
2023-10-13T23:54:22.303Z,98030.47
2023-10-13T23:56:50.083Z,98036.13
2023-10-13T23:59:27.873Z,98023.31
